Time;durP1;ratioP1;P1;durP2;ratioP2;P2;SDS_P1;SDS_P2;PMS_P1;PMS_P2;Temp;Humidity;BMP_temperature;BMP_pressure;BME280_temperature;BME280_humidity;BME280_pressure;Samples;Min_cycle;Max_cycle;Signal;HPM_P1;HPM_P2
2022/09/23 00:00:15;;;;;;;0.20;0.20;;;8.00;99.90;;;;;;5054578;28;20029;-72
2022/09/23 00:02:46;;;;;;;0.20;0.20;;;8.00;99.90;;;;;;5036723;28;20043;-72
2022/09/23 00:05:12;;;;;;;0.20;0.20;;;7.90;99.90;;;;;;5019821;28;20017;-72
2022/09/23 00:07:38;;;;;;;0.20;0.20;;;8.00;99.90;;;;;;5054420;28;20389;-72
2022/09/23 00:10:05;;;;;;;0.20;0.20;;;8.20;99.90;;;;;;5036476;28;20021;-72
2022/09/23 00:12:31;;;;;;;0.20;0.20;;;8.20;99.90;;;;;;5054312;28;20040;-72
2022/09/23 00:14:56;;;;;;;1.10;1.10;;;8.20;99.90;;;;;;5054088;28;20025;-72
2022/09/23 00:17:22;;;;;;;0.20;0.20;;;8.10;99.90;;;;;;5054224;28;20143;-72
2022/09/23 00:19:48;;;;;;;0.85;0.57;;;8.40;99.90;;;;;;5054187;28;20420;-71
2022/09/23 00:22:15;;;;;;;0.30;0.30;;;8.30;99.90;;;;;;5054178;28;20017;-72
2022/09/23 00:24:41;;;;;;;0.17;0.17;;;8.40;99.90;;;;;;5053879;28;20025;-72
2022/09/23 00:27:06;;;;;;;0.28;0.28;;;8.50;99.90;;;;;;5053947;28;20021;-72
2022/09/23 00:29:32;;;;;;;0.47;0.47;;;8.40;99.90;;;;;;5053974;28;20155;-71
2022/09/23 00:31:58;;;;;;;0.28;0.28;;;8.20;99.90;;;;;;5053889;28;20036;-73
2022/09/23 00:34:24;;;;;;;0.20;0.20;;;8.30;99.90;;;;;;5053823;28;20044;-72
2022/09/23 00:36:49;;;;;;;0.20;0.20;;;8.20;99.90;;;;;;5052787;28;20029;-72
2022/09/23 00:39:15;;;;;;;0.20;0.20;;;8.30;99.90;;;;;;5053452;28;20029;-72
2022/09/23 00:41:41;;;;;;;0.20;0.20;;;8.40;99.90;;;;;;5053796;28;20358;-72
2022/09/23 00:44:58;;;;;;;0.20;0.20;;;8.40;99.90;;;;;;5035689;28;20021;-72
2022/09/23 00:47:31;;;;;;;0.20;0.20;;;8.40;99.90;;;;;;4998760;28;20532;-72
2022/09/23 00:50:16;;;;;;;0.20;0.20;;;8.40;99.90;;;;;;5035587;28;20029;-72
2022/09/23 00:52:42;;;;;;;0.20;0.20;;;8.30;99.90;;;;;;5053443;28;20021;-72
2022/09/23 00:55:14;;;;;;;0.20;0.20;;;8.30;99.90;;;;;;5053419;28;20100;-72
2022/09/23 00:57:42;;;;;;;1.17;1.08;;;8.30;99.90;;;;;;5053839;28;20029;-72
2022/09/23 01:00:10;;;;;;;0.20;0.20;;;8.40;99.90;;;;;;5053154;28;20553;-71
2022/09/23 01:02:36;;;;;;;0.20;0.20;;;8.40;99.90;;;;;;5035399;28;20408;-72
2022/09/23 01:05:06;;;;;;;0.20;0.20;;;8.50;99.90;;;;;;5018727;28;20111;-72
2022/09/23 01:07:33;;;;;;;0.20;0.20;;;8.40;99.90;;;;;;5053217;28;20358;-72
2022/09/23 01:10:00;;;;;;;0.20;0.20;;;8.30;99.90;;;;;;5053253;28;20013;-73
2022/09/23 01:12:47;;;;;;;0.17;0.17;;;8.10;99.90;;;;;;5053258;28;20035;-72
2022/09/23 01:15:26;;;;;;;0.20;0.20;;;8.00;99.90;;;;;;5052928;28;20021;-72
2022/09/23 01:18:28;;;;;;;0.20;0.20;;;7.90;99.90;;;;;;5053082;28;20112;-72
2022/09/23 01:21:08;;;;;;;0.20;0.20;;;8.00;99.90;;;;;;5039810;28;20396;-72
2022/09/23 01:23:54;;;;;;;0.35;0.35;;;7.90;99.90;;;;;;5035090;28;20031;-71
2022/09/23 01:26:40;;;;;;;0.20;0.20;;;8.00;99.90;;;;;;5050965;28;20224;-71
2022/09/23 01:29:44;;;;;;;0.20;0.20;;;8.00;99.90;;;;;;5052948;28;20123;-72
2022/09/23 01:32:13;;;;;;;0.20;0.20;;;7.90;99.90;;;;;;5034790;28;20029;-71
2022/09/23 01:34:44;;;;;;;0.20;0.20;;;7.90;99.90;;;;;;5052544;28;20108;-72
2022/09/23 01:37:14;;;;;;;;;;;7.90;99.90;;;;;;5052979;28;20029;-72
2022/09/23 01:39:57;;;;;;;0.20;0.20;;;7.90;99.90;;;;;;5052542;28;20007;-72
2022/09/23 01:42:47;;;;;;;0.20;0.20;;;8.00;99.90;;;;;;5052662;28;20068;-72
2022/09/23 01:45:21;;;;;;;0.20;0.20;;;8.00;99.90;;;;;;5052227;28;20108;-71
2022/09/23 01:47:50;;;;;;;0.20;0.20;;;8.00;99.90;;;;;;5052593;28;20040;-72
2022/09/23 01:53:14;;;;;;;;;;;8.00;99.90;;;;;;5052726;28;20489;-72
2022/09/23 01:55:47;;;;;;;0.65;0.65;;;8.00;99.90;;;;;;5052246;28;19908;-72
2022/09/23 01:58:27;;;;;;;0.20;0.20;;;7.90;99.90;;;;;;5034547;28;20029;-72
2022/09/23 02:01:00;;;;;;;0.20;0.20;;;8.00;99.90;;;;;;5051000;28;20017;-72
2022/09/23 02:03:49;;;;;;;0.20;0.20;;;7.90;99.90;;;;;;5052079;28;20435;-72
2022/09/23 02:06:50;;;;;;;0.20;0.20;;;7.90;99.90;;;;;;5051554;28;20063;-72
2022/09/23 02:09:20;;;;;;;0.20;0.20;;;7.90;99.90;;;;;;5034370;28;20017;-72
2022/09/23 02:11:50;;;;;;;0.10;0.10;;;7.90;99.90;;;;;;5052273;28;20388;-72
2022/09/23 02:14:30;;;;;;;0.35;0.35;;;8.00;99.90;;;;;;5051880;28;20033;-72
2022/09/23 02:17:00;;;;;;;0.20;0.20;;;7.90;99.90;;;;;;5051970;28;20047;-72
2022/09/23 02:19:38;;;;;;;0.20;0.20;;;7.90;99.90;;;;;;5051999;28;20025;-72
2022/09/23 02:22:11;;;;;;;0.10;0.10;;;7.90;99.90;;;;;;5034112;28;20040;-72
2022/09/23 02:24:38;;;;;;;0.20;0.20;;;7.90;99.90;;;;;;5051901;28;20485;-72
2022/09/23 02:27:07;;;;;;;0.20;0.20;;;7.80;99.90;;;;;;5034022;28;20017;-72
2022/09/23 02:29:58;;;;;;;0.22;0.22;;;7.70;99.90;;;;;;5051757;28;20029;-72
2022/09/23 02:32:48;;;;;;;0.20;0.20;;;7.70;99.90;;;;;;5034081;28;20048;-72
2022/09/23 02:35:16;;;;;;;0.20;0.20;;;7.70;99.90;;;;;;5051637;28;20025;-72
2022/09/23 02:38:16;;;;;;;0.30;0.30;;;7.70;99.90;;;;;;5051664;28;20033;-72
2022/09/23 02:40:55;;;;;;;0.20;0.20;;;7.80;99.90;;;;;;5034347;28;20109;-72
2022/09/23 02:43:42;;;;;;;0.20;0.20;;;7.90;99.90;;;;;;5051715;28;20017;-71
2022/09/23 02:46:08;;;;;;;0.20;0.20;;;7.90;99.90;;;;;;5050598;28;20104;-72
2022/09/23 02:48:49;;;;;;;0.20;0.20;;;7.90;99.90;;;;;;5033868;28;20037;-72
2022/09/23 02:51:15;;;;;;;0.50;0.50;;;7.80;99.90;;;;;;5051598;28;20044;-72
2022/09/23 02:53:41;;;;;;;0.20;0.20;;;7.80;99.90;;;;;;5051625;28;20112;-72
2022/09/23 02:56:20;;;;;;;0.22;0.22;;;7.70;99.90;;;;;;5051534;28;20071;-71
2022/09/23 02:58:53;;;;;;;0.90;0.70;;;7.60;99.90;;;;;;5033383;28;20428;-72
2022/09/23 03:01:51;;;;;;;0.30;0.30;;;7.60;99.90;;;;;;5053842;28;20028;-72
2022/09/23 03:04:38;;;;;;;0.20;0.20;;;7.40;99.90;;;;;;5037737;28;20408;-72
2022/09/23 03:07:15;;;;;;;0.20;0.20;;;7.40;99.90;;;;;;5055100;28;20096;-72
2022/09/23 03:09:59;;;;;;;0.25;0.25;;;7.30;99.90;;;;;;5037607;28;20040;-72
2022/09/23 03:12:46;;;;;;;0.20;0.20;;;7.40;99.90;;;;;;5037833;28;20032;-72
2022/09/23 03:15:22;;;;;;;0.50;0.50;;;7.30;99.90;;;;;;5020700;28;20040;-72
2022/09/23 03:18:19;;;;;;;0.20;0.20;;;7.00;99.90;;;;;;5037537;28;20028;-72
2022/09/23 03:20:49;;;;;;;0.85;0.85;;;7.10;99.90;;;;;;5034339;28;20029;-72
2022/09/23 03:23:22;;;;;;;0.20;0.20;;;7.10;99.90;;;;;;5037273;28;20021;-72
2022/09/23 03:25:49;;;;;;;0.20;0.20;;;7.00;99.90;;;;;;5037285;28;20033;-72
2022/09/23 03:28:17;;;;;;;0.20;0.20;;;7.00;99.90;;;;;;5055061;28;20070;-72
2022/09/23 03:30:44;;;;;;;0.60;0.60;;;7.00;99.90;;;;;;5037147;28;20400;-72
2022/09/23 03:33:14;;;;;;;0.20;0.20;;;7.00;99.90;;;;;;5054983;28;20025;-72
2022/09/23 03:38:40;;;;;;;0.30;0.30;;;6.80;99.90;;;;;;5054872;28;20025;-72
2022/09/23 03:41:09;;;;;;;0.30;0.30;;;6.90;99.90;;;;;;5054982;28;20554;-71
2022/09/23 03:43:35;;;;;;;0.20;0.20;;;6.80;99.90;;;;;;5054661;28;20048;-72
2022/09/23 03:46:02;;;;;;;0.30;0.30;;;6.70;99.90;;;;;;5054546;28;20025;-72
2022/09/23 03:48:27;;;;;;;0.20;0.20;;;6.50;99.90;;;;;;5054703;28;20551;-72
2022/09/23 03:50:53;;;;;;;0.20;0.20;;;6.30;99.90;;;;;;5036900;28;20159;-72
2022/09/23 03:53:20;;;;;;;0.20;0.20;;;6.30;99.90;;;;;;5054520;28;20021;-72
2022/09/23 03:55:47;;;;;;;0.20;0.20;;;6.30;99.90;;;;;;5054430;28;20543;-72
2022/09/23 03:58:13;;;;;;;0.20;0.20;;;6.50;99.90;;;;;;5054597;28;20029;-72
2022/09/23 04:00:38;;;;;;;0.85;0.85;;;6.50;99.90;;;;;;5036946;28;20258;-72
2022/09/23 04:03:04;;;;;;;0.20;0.20;;;6.60;99.90;;;;;;5036487;28;20439;-73
2022/09/23 04:05:30;;;;;;;11.45;2.50;;;6.50;99.90;;;;;;5054183;28;20032;-72
2022/09/23 04:07:56;;;;;;;0.20;0.20;;;6.50;99.90;;;;;;5054159;28;20029;-72
2022/09/23 04:10:22;;;;;;;0.30;0.30;;;6.40;99.90;;;;;;5036422;28;20388;-72
2022/09/23 04:12:47;;;;;;;0.20;0.20;;;6.40;99.90;;;;;;5036124;28;20124;-71
2022/09/23 04:15:13;;;;;;;1.10;0.70;;;6.30;99.90;;;;;;5053977;28;20029;-71
2022/09/23 04:17:39;;;;;;;0.20;0.20;;;6.40;99.90;;;;;;5054219;28;20033;-72
2022/09/23 04:20:05;;;;;;;0.20;0.20;;;6.50;99.90;;;;;;5052976;28;20036;-71
2022/09/23 04:22:34;;;;;;;0.30;0.30;;;6.50;99.90;;;;;;5054163;28;20060;-72
2022/09/23 04:25:00;;;;;;;0.20;0.20;;;6.50;99.90;;;;;;5053860;28;20025;-72
2022/09/23 04:27:26;;;;;;;0.20;0.20;;;6.30;99.90;;;;;;5054042;28;20021;-71
2022/09/23 04:29:52;;;;;;;0.65;0.65;;;6.30;99.90;;;;;;5036128;28;20511;-71
2022/09/23 04:32:17;;;;;;;0.75;0.75;;;6.40;99.90;;;;;;5053904;28;20025;-71
2022/09/23 04:34:43;;;;;;;0.30;0.30;;;6.40;99.90;;;;;;5053849;28;20033;-71
2022/09/23 04:37:09;;;;;;;0.38;0.38;;;6.40;99.90;;;;;;5053702;28;20025;-72
2022/09/23 04:39:35;;;;;;;0.50;0.50;;;6.30;99.90;;;;;;5053634;28;20523;-72
2022/09/23 04:42:02;;;;;;;1.10;0.63;;;6.20;99.90;;;;;;5019183;28;20492;-72
2022/09/23 04:44:28;;;;;;;3.03;1.00;;;6.10;99.90;;;;;;5035779;28;20024;-72
2022/09/23 04:46:54;;;;;;;1.95;0.90;;;6.30;99.90;;;;;;5053521;28;20021;-72
2022/09/23 04:49:20;;;;;;;0.45;0.45;;;6.40;99.90;;;;;;5052201;28;20547;-71
2022/09/23 04:51:46;;;;;;;0.30;0.30;;;6.40;99.90;;;;;;5053663;28;20029;-72
2022/09/23 04:54:13;;;;;;;0.32;0.32;;;6.50;99.90;;;;;;5052091;28;20033;-71
2022/09/23 04:56:39;;;;;;;0.40;0.40;;;6.50;99.90;;;;;;5053263;28;20033;-72
2022/09/23 04:59:06;;;;;;;0.25;0.25;;;6.70;99.90;;;;;;5053345;28;20059;-72
2022/09/23 05:01:34;;;;;;;0.73;0.73;;;6.60;99.90;;;;;;5052108;28;20025;-72
2022/09/23 05:04:06;;;;;;;0.30;0.30;;;6.70;99.90;;;;;;5051889;28;20027;-72
2022/09/23 05:06:33;;;;;;;0.20;0.20;;;6.60;99.90;;;;;;5053181;28;20021;-72
2022/09/23 05:09:00;;;;;;;0.30;0.30;;;6.50;99.90;;;;;;5034907;28;20036;-72
2022/09/23 05:11:28;;;;;;;1.05;0.60;;;6.50;99.90;;;;;;5053168;28;20025;-71
2022/09/23 05:13:54;;;;;;;0.20;0.20;;;6.50;99.90;;;;;;5052985;28;20017;-72
2022/09/23 05:16:22;;;;;;;0.20;0.20;;;6.50;99.90;;;;;;5052914;28;20055;-72
2022/09/23 05:18:49;;;;;;;0.68;0.68;;;6.50;99.90;;;;;;5053018;28;20052;-72
2022/09/23 05:21:20;;;;;;;0.65;0.65;;;6.60;99.90;;;;;;5052862;28;20083;-72
2022/09/23 05:23:54;;;;;;;0.20;0.20;;;6.60;99.90;;;;;;5034609;28;20354;-72
2022/09/23 05:26:22;;;;;;;0.45;0.45;;;6.60;99.90;;;;;;5034966;28;20025;-72
2022/09/23 05:28:47;;;;;;;0.60;0.60;;;6.60;99.90;;;;;;5052899;28;20053;-72
2022/09/23 05:31:16;;;;;;;0.20;0.20;;;6.50;99.90;;;;;;5034870;28;20075;-72
2022/09/23 05:33:44;;;;;;;0.40;0.40;;;6.60;99.90;;;;;;5052598;28;20025;-72
2022/09/23 05:36:11;;;;;;;0.30;0.30;;;6.50;99.90;;;;;;5052467;28;20025;-72
2022/09/23 05:38:37;;;;;;;0.15;0.15;;;6.50;99.90;;;;;;5057502;28;20024;-72
2022/09/23 05:41:06;;;;;;;0.20;0.20;;;6.50;99.90;;;;;;5051230;28;20090;-71
2022/09/23 05:43:32;;;;;;;0.55;0.55;;;6.60;99.90;;;;;;5070102;28;20021;-72
2022/09/23 05:46:23;;;;;;;0.28;0.28;;;6.70;99.90;;;;;;5062962;28;20036;-72
2022/09/23 05:48:49;;;;;;;0.30;0.30;;;6.80;99.90;;;;;;5052251;28;20025;-72
2022/09/23 05:51:20;;;;;;;0.55;0.55;;;7.00;99.90;;;;;;5050827;28;20426;-72
2022/09/23 05:53:47;;;;;;;0.60;0.60;;;7.10;99.90;;;;;;5052173;28;20028;-72
2022/09/23 05:56:15;;;;;;;0.20;0.20;;;7.10;99.90;;;;;;5050751;28;20029;-72
2022/09/23 05:58:41;;;;;;;17.30;15.95;;;7.20;99.90;;;;;;5052195;28;20133;-72
2022/09/23 06:01:11;;;;;;;0.20;0.20;;;7.20;99.90;;;;;;5052342;28;20096;-72
2022/09/23 06:03:37;;;;;;;0.40;0.40;;;7.30;99.90;;;;;;5052215;28;20104;-72
2022/09/23 06:06:04;;;;;;;0.40;0.40;;;7.40;99.90;;;;;;5049653;28;20619;-72
2022/09/23 06:08:31;;;;;;;1.23;1.23;;;7.60;99.90;;;;;;5050264;28;20488;-72
2022/09/23 06:10:57;;;;;;;1.63;1.52;;;7.60;99.90;;;;;;5050477;28;20104;-72
2022/09/23 06:13:26;;;;;;;0.47;0.47;;;7.80;99.90;;;;;;5050395;28;20580;-72
2022/09/23 06:15:56;;;;;;;0.20;0.20;;;7.90;99.90;;;;;;5050051;28;20510;-71
2022/09/23 06:18:22;;;;;;;0.20;0.20;;;7.90;99.90;;;;;;5050612;28;20040;-72
2022/09/23 06:20:48;;;;;;;0.20;0.20;;;8.00;99.90;;;;;;5050818;28;20021;-72
2022/09/23 06:23:13;;;;;;;0.25;0.25;;;8.00;99.90;;;;;;5034098;28;20517;-72
2022/09/23 06:25:39;;;;;;;0.20;0.20;;;8.20;99.90;;;;;;5050481;28;20056;-72
2022/09/23 06:28:09;;;;;;;0.20;0.20;;;8.30;99.90;;;;;;5051794;28;20029;-73
2022/09/23 06:30:36;;;;;;;0.20;0.20;;;8.30;99.90;;;;;;5050623;28;20178;-72
2022/09/23 06:33:01;;;;;;;0.17;0.17;;;8.50;99.90;;;;;;5050469;28;20029;-73
2022/09/23 06:35:27;;;;;;;0.20;0.20;;;8.60;99.90;;;;;;5050730;28;20027;-72
2022/09/23 06:37:54;;;;;;;1.35;0.55;;;8.80;99.90;;;;;;5034011;28;20028;-72
2022/09/23 06:40:23;;;;;;;0.40;0.40;;;8.90;99.90;;;;;;5035667;28;20017;-72
2022/09/23 06:42:57;;;;;;;0.30;0.30;;;8.70;99.90;;;;;;5050257;28;20025;-72
2022/09/23 06:45:23;;;;;;;0.20;0.20;;;8.60;99.90;;;;;;5051526;28;20013;-73
2022/09/23 06:47:55;;;;;;;0.15;0.15;;;8.60;99.90;;;;;;5051993;28;20108;-72
2022/09/23 06:50:22;;;;;;;0.43;0.40;;;8.60;99.90;;;;;;5033509;28;20051;-72
2022/09/23 06:52:54;;;;;;;0.40;0.40;;;8.70;99.90;;;;;;5049715;28;20350;-72
2022/09/23 06:55:27;;;;;;;0.40;0.40;;;8.80;99.90;;;;;;5016891;28;20394;-72
2022/09/23 06:57:56;;;;;;;0.77;0.77;;;8.90;99.90;;;;;;5051300;28;20025;-71
2022/09/23 07:00:23;;;;;;;0.10;0.10;;;9.00;99.90;;;;;;5056074;28;20024;-72
2022/09/23 07:02:49;;;;;;;0.30;0.30;;;9.20;99.90;;;;;;5071351;28;20449;-72
2022/09/23 07:05:16;;;;;;;0.10;0.10;;;9.40;99.90;;;;;;5053356;28;20017;-71
2022/09/23 07:07:45;;;;;;;3.65;0.77;;;9.60;99.90;;;;;;5070167;28;20017;-72
2022/09/23 07:10:11;;;;;;;0.10;0.10;;;9.80;99.90;;;;;;5071425;28;20396;-72
2022/09/23 07:12:37;;;;;;;0.20;0.20;;;10.00;99.90;;;;;;5071295;28;20035;-72
2022/09/23 07:15:04;;;;;;;0.10;0.10;;;10.10;99.90;;;;;;5070952;28;20024;-71
2022/09/23 07:17:30;;;;;;;0.20;0.20;;;10.20;99.90;;;;;;5070081;28;20033;-72
2022/09/23 07:19:56;;;;;;;0.22;0.22;;;10.30;99.90;;;;;;5071158;28;20028;-72
2022/09/23 07:22:23;;;;;;;0.20;0.20;;;10.30;99.90;;;;;;5070004;28;20365;-72
2022/09/23 07:24:48;;;;;;;0.10;0.10;;;10.40;99.90;;;;;;5071112;28;20484;-72
2022/09/23 07:27:15;;;;;;;0.20;0.20;;;10.60;99.90;;;;;;5071176;28;20059;-72
2022/09/23 07:29:41;;;;;;;0.20;0.20;;;10.70;99.90;;;;;;5071153;28;20020;-72
2022/09/23 07:32:08;;;;;;;0.20;0.20;;;10.80;99.90;;;;;;5053154;28;20032;-72
2022/09/23 07:34:35;;;;;;;0.10;0.10;;;10.90;99.90;;;;;;5071104;28;20103;-72
2022/09/23 07:37:01;;;;;;;0.10;0.10;;;11.00;99.90;;;;;;5069603;28;20036;-72
2022/09/23 07:39:28;;;;;;;0.10;0.10;;;11.00;99.90;;;;;;5053061;28;20051;-72
2022/09/23 07:41:54;;;;;;;0.20;0.20;;;11.10;99.90;;;;;;5069927;28;20024;-72
2022/09/23 07:44:20;;;;;;;0.13;0.13;;;11.20;99.90;;;;;;5036264;28;20032;-72
2022/09/23 07:46:48;;;;;;;0.20;0.20;;;11.20;99.90;;;;;;5070585;28;20441;-72
2022/09/23 07:49:14;;;;;;;0.10;0.10;;;11.30;99.90;;;;;;5065120;28;20017;-72
2022/09/23 07:51:45;;;;;;;0.20;0.20;;;11.40;99.90;;;;;;5054533;28;20040;-72
2022/09/23 07:54:13;;;;;;;0.10;0.10;;;11.50;99.90;;;;;;5054568;28;20032;-72
2022/09/23 07:56:40;;;;;;;0.20;0.20;;;11.50;99.90;;;;;;5054186;28;20028;-73
2022/09/23 07:59:08;;;;;;;0.10;0.10;;;11.70;99.90;;;;;;5054265;28;20029;-72
2022/09/23 08:01:37;;;;;;;0.47;0.47;;;11.80;99.90;;;;;;5054374;28;20071;-72
2022/09/23 08:04:06;;;;;;;0.10;0.10;;;11.90;99.90;;;;;;5054315;28;20441;-72
2022/09/23 08:06:32;;;;;;;0.10;0.10;;;12.00;99.90;;;;;;5053934;28;20025;-72
2022/09/23 08:08:59;;;;;;;0.10;0.10;;;12.00;99.90;;;;;;5054191;28;20116;-72
2022/09/23 08:11:26;;;;;;;0.10;0.10;;;12.20;99.90;;;;;;5052923;28;20032;-72
2022/09/23 08:13:53;;;;;;;3.83;0.73;;;12.20;99.90;;;;;;5052743;28;20116;-72
2022/09/23 08:16:19;;;;;;;0.20;0.20;;;12.30;99.90;;;;;;5053923;28;20521;-72
2022/09/23 08:18:45;;;;;;;0.10;0.10;;;12.50;99.90;;;;;;5054004;28;20063;-72
2022/09/23 08:21:11;;;;;;;0.10;0.10;;;12.60;99.90;;;;;;5053868;28;20476;-72
2022/09/23 08:23:37;;;;;;;0.10;0.10;;;12.60;99.90;;;;;;5036167;28;20052;-72
2022/09/23 08:26:05;;;;;;;0.20;0.20;;;12.70;99.90;;;;;;5053540;28;20057;-72
2022/09/23 08:28:32;;;;;;;0.17;0.17;;;12.80;99.90;;;;;;5035950;28;20054;-71
2022/09/23 08:30:58;;;;;;;0.20;0.20;;;12.90;99.90;;;;;;5053881;28;20052;-72
2022/09/23 08:33:24;;;;;;;0.68;0.47;;;13.10;99.90;;;;;;5035974;28;20544;-71
2022/09/23 08:35:51;;;;;;;0.10;0.10;;;13.20;99.90;;;;;;5053559;28;20472;-72
2022/09/23 08:38:17;;;;;;;0.40;0.40;;;13.30;99.90;;;;;;5053511;28;20033;-71
2022/09/23 08:40:47;;;;;;;0.13;0.13;;;13.40;99.90;;;;;;5053578;28;20033;-71
2022/09/23 08:43:26;;;;;;;0.10;0.10;;;13.50;99.90;;;;;;5053313;28;20025;-72
2022/09/23 08:45:56;;;;;;;0.10;0.10;;;13.60;99.90;;;;;;5052976;28;20028;-72
2022/09/23 08:48:31;;;;;;;0.35;0.35;;;13.80;99.90;;;;;;5053231;28;20104;-72
2022/09/23 08:51:11;;;;;;;0.20;0.20;;;14.10;99.90;;;;;;5052242;28;20057;-72
2022/09/23 08:53:37;;;;;;;0.10;0.10;;;14.40;99.90;;;;;;5052282;28;20162;-73
2022/09/23 08:56:09;;;;;;;0.10;0.10;;;14.80;99.90;;;;;;5034251;28;20370;-73
2022/09/23 08:58:54;;;;;;;0.38;0.38;;;15.10;99.90;;;;;;5033554;28;20048;-73
2022/09/23 09:01:37;;;;;;;0.17;0.17;;;15.60;99.90;;;;;;5034341;28;20477;-73
2022/09/23 09:04:14;;;;;;;0.20;0.20;;;15.80;99.90;;;;;;5052121;28;20017;-73
2022/09/23 09:06:41;;;;;;;0.10;0.10;;;15.90;99.90;;;;;;5050656;28;20021;-73
2022/09/23 09:09:22;;;;;;;0.10;0.10;;;15.90;99.90;;;;;;5052114;28;20025;-72
2022/09/23 09:11:51;;;;;;;0.98;0.65;;;16.40;99.90;;;;;;5052079;28;20032;-73
2022/09/23 09:14:34;;;;;;;0.10;0.10;;;16.30;99.90;;;;;;5051919;28;20044;-72
2022/09/23 09:17:07;;;;;;;0.57;0.57;;;16.70;99.90;;;;;;5050782;28;20028;-73
2022/09/23 09:19:54;;;;;;;0.10;0.10;;;16.70;98.70;;;;;;5050716;28;20053;-72
2022/09/23 09:22:24;;;;;;;0.20;0.20;;;16.60;98.40;;;;;;5034153;28;20033;-73
2022/09/23 09:24:57;;;;;;;2.30;0.63;;;17.00;97.60;;;;;;5051904;28;20422;-73
2022/09/23 09:27:23;;;;;;;0.32;0.32;;;16.80;97.10;;;;;;5051866;28;20017;-73
2022/09/23 09:29:53;;;;;;;0.10;0.10;;;17.20;97.20;;;;;;5050517;28;20036;-73
2022/09/23 09:32:32;;;;;;;0.03;0.03;;;17.90;95.50;;;;;;5051837;28;20024;-73
2022/09/23 09:35:06;;;;;;;0.75;0.47;;;18.00;94.10;;;;;;5051721;28;20021;-72
2022/09/23 09:37:40;;;;;;;5.95;0.70;;;18.50;92.30;;;;;;5051825;28;20021;-72
2022/09/23 09:40:10;;;;;;;0.30;0.30;;;18.70;92.30;;;;;;5051618;28;20643;-72
2022/09/23 09:42:39;;;;;;;0.00;0.00;;;18.80;91.50;;;;;;5033688;28;20021;-73
2022/09/23 09:45:26;;;;;;;0.35;0.35;;;19.30;90.20;;;;;;5033764;28;20298;-72
2022/09/23 09:48:12;;;;;;;0.10;0.10;;;19.20;88.30;;;;;;5050483;28;20433;-72
2022/09/23 09:50:46;;;;;;;0.30;0.30;;;19.50;86.80;;;;;;5013686;28;1106577;-73
2022/09/23 09:53:26;;;;;;;0.38;0.38;;;19.90;83.20;;;;;;5052254;28;20017;-73
2022/09/23 09:56:04;;;;;;;1.50;1.40;;;20.30;79.60;;;;;;5052215;28;20040;-73
2022/09/23 09:58:40;;;;;;;0.10;0.10;;;19.80;77.40;;;;;;5051028;28;20021;-73
2022/09/23 10:01:07;;;;;;;0.20;0.20;;;20.00;79.90;;;;;;5052280;28;20024;-73
2022/09/23 10:03:38;;;;;;;0.00;0.00;;;20.30;77.70;;;;;;5051947;28;20036;-73
2022/09/23 10:06:25;;;;;;;0.10;0.10;;;20.80;76.50;;;;;;5051803;28;20496;-73
2022/09/23 10:09:03;;;;;;;0.28;0.22;;;20.80;73.80;;;;;;5051122;28;20124;-73
2022/09/23 10:11:30;;;;;;;2.83;0.63;;;21.60;71.30;;;;;;5052054;28;20029;-73
2022/09/23 10:13:59;;;;;;;0.15;0.10;;;21.80;69.80;;;;;;5052605;28;20116;-73
2022/09/23 10:16:26;;;;;;;0.25;0.20;;;22.30;68.10;;;;;;5051722;28;20044;-73
2022/09/23 10:18:55;;;;;;;0.00;0.00;;;22.40;65.90;;;;;;5050263;28;20025;-73
2022/09/23 10:21:23;;;;;;;0.08;0.08;;;22.60;66.50;;;;;;5034064;28;20036;-73
2022/09/23 10:23:56;;;;;;;0.00;0.00;;;22.60;64.50;;;;;;5052349;28;20025;-73
2022/09/23 10:26:31;;;;;;;1.00;0.95;;;22.50;63.10;;;;;;5050145;28;20029;-73
2022/09/23 10:28:58;;;;;;;0.10;0.10;;;22.90;61.60;;;;;;5051100;28;20028;-73
2022/09/23 10:31:27;;;;;;;0.20;0.20;;;23.10;59.70;;;;;;5065968;28;20131;-73
2022/09/23 10:33:59;;;;;;;0.50;0.50;;;22.60;62.40;;;;;;5058569;28;20028;-72
2022/09/23 10:36:26;;;;;;;0.00;0.00;;;22.20;59.30;;;;;;5059364;28;20120;-73
2022/09/23 10:46:37;;;;;;;0.20;0.20;;;22.20;61.00;;;;;;5033800;28;20448;-73
2022/09/23 10:48:10;;;;;;;1.10;0.30;;;23.00;58.80;;;;;;5026654;28;20029;-72
2022/09/23 10:50:48;;;;;;;0.40;0.15;;;23.10;57.80;;;;;;5051477;28;20036;-73
2022/09/23 10:53:18;;;;;;;0.30;0.30;;;23.00;57.90;;;;;;5051403;28;20107;-73
2022/09/23 10:56:03;;;;;;;0.30;0.30;;;22.90;58.50;;;;;;5016925;28;20017;-73
2022/09/23 10:58:58;;;;;;;0.35;0.35;;;22.90;57.80;;;;;;5051352;28;20094;-73
2022/09/23 11:01:30;;;;;;;0.20;0.20;;;23.00;58.10;;;;;;5051468;28;20097;-73
2022/09/23 11:04:11;;;;;;;;;;;22.90;58.80;;;;;;5051627;28;20032;-73
2022/09/23 11:06:47;;;;;;;0.57;0.57;;;23.50;57.90;;;;;;5033593;28;19974;-73
2022/09/23 11:09:30;;;;;;;0.75;0.63;;;23.50;56.90;;;;;;5051391;28;20017;-73
2022/09/23 11:12:02;;;;;;;0.43;0.43;;;23.60;57.40;;;;;;5051365;28;20596;-74
2022/09/23 11:14:32;;;;;;;;;;;24.00;56.60;;;;;;5051676;28;20033;-73
2022/09/23 11:17:20;;;;;;;1.13;0.90;;;24.00;55.80;;;;;;5051065;28;19927;-73
2022/09/23 11:20:05;;;;;;;0.00;0.00;;;24.00;55.40;;;;;;5051376;28;20525;-73
2022/09/23 11:23:06;;;;;;;0.03;0.03;;;23.90;56.70;;;;;;5053912;28;20053;-73
2022/09/23 11:25:45;;;;;;;0.17;0.17;;;23.50;57.00;;;;;;5037423;28;20055;-73
2022/09/23 11:28:22;;;;;;;6.18;5.57;;;23.70;56.70;;;;;;5055104;28;20028;-73
2022/09/23 11:31:07;;;;;;;1.05;0.95;;;23.50;56.60;;;;;;5055062;28;20025;-73
2022/09/23 11:34:10;;;;;;;0.00;0.00;;;24.00;56.60;;;;;;5054678;28;20029;-73
2022/09/23 11:37:02;;;;;;;0.30;0.30;;;24.50;55.50;;;;;;5010390;28;20037;-73
2022/09/23 11:39:59;;;;;;;0.75;0.63;;;25.00;55.10;;;;;;5036823;28;20051;-73
2022/09/23 11:42:33;;;;;;;0.10;0.10;;;24.90;54.20;;;;;;5054926;28;20366;-72
2022/09/23 11:45:07;;;;;;;0.20;0.20;;;24.20;55.90;;;;;;5054881;28;20021;-73
2022/09/23 11:47:41;;;;;;;0.10;0.10;;;24.30;56.10;;;;;;5036666;28;20024;-73
2022/09/23 11:50:33;;;;;;;2.40;0.25;;;23.70;56.20;;;;;;5036470;28;20036;-73
2022/09/23 11:53:22;;;;;;;1.25;0.90;;;23.60;56.80;;;;;;5054617;28;20441;-73
2022/09/23 11:56:02;;;;;;;0.45;0.43;;;23.20;56.70;;;;;;5054837;28;20029;-73
2022/09/23 11:58:41;;;;;;;0.00;0.00;;;23.40;57.00;;;;;;5054936;28;20057;-73
2022/09/23 12:01:13;;;;;;;0.10;0.10;;;23.20;58.00;;;;;;5054377;28;20035;-72
2022/09/23 12:03:55;;;;;;;0.32;0.32;;;23.40;58.10;;;;;;5054420;28;20025;-73
2022/09/23 12:06:26;;;;;;;0.00;0.00;;;23.70;56.80;;;;;;5036399;28;20071;-72
2022/09/23 12:09:00;;;;;;;0.25;0.25;;;23.80;57.20;;;;;;5036242;28;20450;-72
2022/09/23 12:11:34;;;;;;;0.38;0.38;;;24.00;56.50;;;;;;5054070;28;20029;-72
2022/09/23 12:14:37;;;;;;;0.10;0.10;;;23.30;55.50;;;;;;5036660;28;20143;-73
2022/09/23 12:17:13;;;;;;;0.10;0.10;;;23.30;57.20;;;;;;5048738;28;20036;-72
2022/09/23 12:20:02;;;;;;;0.10;0.10;;;23.30;58.10;;;;;;5054061;28;20029;-73
2022/09/23 12:22:35;;;;;;;0.80;0.80;;;23.30;58.20;;;;;;5038689;28;20033;-73
2022/09/23 12:25:32;;;;;;;1.52;0.75;;;23.10;58.80;;;;;;5053776;28;20499;-72
2022/09/23 12:28:09;;;;;;;0.65;0.35;;;23.00;59.20;;;;;;5036049;28;20068;-73
2022/09/23 12:30:36;;;;;;;0.75;0.52;;;22.70;59.20;;;;;;5054024;28;20546;-73
2022/09/23 12:33:21;;;;;;;0.05;0.05;;;22.20;59.80;;;;;;5053704;28;20403;-72
2022/09/23 12:35:47;;;;;;;0.85;0.82;;;22.00;61.20;;;;;;5035662;28;20017;-72
2022/09/23 12:38:18;;;;;;;0.13;0.13;;;21.80;61.60;;;;;;5053488;28;20036;-72
2022/09/23 12:40:44;;;;;;;0.00;0.00;;;21.20;63.90;;;;;;5052346;28;20426;-72
2022/09/23 12:43:48;;;;;;;0.13;0.13;;;21.20;64.30;;;;;;5035926;28;20374;-72
2022/09/23 12:46:33;;;;;;;0.45;0.45;;;21.70;63.90;;;;;;5040227;28;20052;-73
2022/09/23 12:49:02;;;;;;;0.08;0.08;;;22.10;61.80;;;;;;5053408;28;20052;-72
2022/09/23 12:51:33;;;;;;;0.20;0.15;;;22.10;61.10;;;;;;5035504;28;20017;-72
2022/09/23 12:54:20;;;;;;;3.25;1.05;;;22.20;61.40;;;;;;5071860;28;20511;-73
2022/09/23 12:56:52;;;;;;;7.47;0.90;;;22.00;60.40;;;;;;5055147;28;20032;-72
2022/09/23 12:59:24;;;;;;;0.32;0.30;;;21.60;62.70;;;;;;5055482;28;20488;-72
2022/09/23 13:01:50;;;;;;;;;;;21.90;62.10;;;;;;5055656;28;20476;-71
2022/09/23 13:07:24;;;;;;;0.20;0.20;;;21.60;63.20;;;;;;5073091;28;20051;-72
2022/09/23 13:09:54;;;;;;;0.00;0.00;;;21.80;63.80;;;;;;5055327;28;20227;-72
2022/09/23 13:12:28;;;;;;;0.10;0.10;;;21.90;62.70;;;;;;5055312;28;20496;-72
2022/09/23 13:14:59;;;;;;;2.08;1.50;;;21.90;63.20;;;;;;5072882;28;20024;-72
2022/09/23 13:17:31;;;;;;;0.13;0.13;;;21.70;63.90;;;;;;5073451;28;20491;-72
2022/09/23 13:20:04;;;;;;;0.00;0.00;;;21.80;64.00;;;;;;5072919;28;20028;-72
2022/09/23 13:22:48;;;;;;;2.17;0.38;;;21.60;63.80;;;;;;5073054;28;20021;-72
2022/09/23 13:25:21;;;;;;;0.03;0.03;;;21.40;63.30;;;;;;5054987;28;20033;-72
2022/09/23 13:27:50;;;;;;;0.57;0.40;;;21.20;65.00;;;;;;5055149;28;20103;-72
2022/09/23 13:30:25;;;;;;;0.30;0.30;;;21.50;66.00;;;;;;5072920;28;20028;-72
2022/09/23 13:33:10;;;;;;;0.00;0.00;;;21.40;63.20;;;;;;5054540;28;20028;-73
2022/09/23 13:35:51;;;;;;;0.03;0.03;;;21.40;62.50;;;;;;5054508;28;20020;-72